createdAt,value
2023-02-01T00:01:07.357Z,99331.81
2023-02-01T00:03:34.190Z,99332.78
2023-02-01T00:06:01.594Z,99322.38
2023-02-01T00:08:28.649Z,99319.78
2023-02-01T00:11:07.859Z,99323.22
2023-02-01T00:13:38.987Z,99318.88
2023-02-01T00:16:08.627Z,99312.81
2023-02-01T00:18:35.486Z,99300.50
2023-02-01T00:21:02.380Z,99310.00
2023-02-01T00:23:29.010Z,99309.19
2023-02-01T00:25:55.582Z,99309.47
2023-02-01T00:28:22.485Z,99306.91
2023-02-01T00:31:05.760Z,99313.00
2023-02-01T00:33:33.586Z,99317.31
2023-02-01T00:36:02.251Z,99308.66
2023-02-01T00:38:30.137Z,99311.25
2023-02-01T00:41:07.841Z,99308.59
2023-02-01T00:43:35.052Z,99309.50
2023-02-01T00:46:01.935Z,99309.41
2023-02-01T00:48:28.675Z,99304.28
2023-02-01T00:50:55.301Z,99304.09
2023-02-01T00:53:21.894Z,99309.22
2023-02-01T00:55:49.268Z,99304.00
2023-02-01T00:58:16.267Z,99298.81
2023-02-01T01:00:43.044Z,99293.69
2023-02-01T01:03:18.801Z,99302.41
2023-02-01T01:05:46.867Z,99306.72
2023-02-01T01:08:14.034Z,99313.72
2023-02-01T01:10:40.613Z,99307.59
2023-02-01T01:13:07.886Z,99310.31
2023-02-01T01:15:40.879Z,99312.88
2023-02-01T01:18:09.089Z,99318.06
2023-02-01T01:20:37.642Z,99329.41
2023-02-01T01:23:04.865Z,99329.25
2023-02-01T01:25:31.436Z,99313.72
2023-02-01T01:27:58.721Z,99320.69
2023-02-01T01:30:25.491Z,99320.63
2023-02-01T01:32:53.327Z,99319.81
2023-02-01T01:35:19.950Z,99323.28
2023-02-01T01:37:46.592Z,99319.84
2023-02-01T01:40:13.844Z,99325.00
2023-02-01T01:42:42.503Z,99326.69
2023-02-01T01:45:30.871Z,99324.94
2023-02-01T01:48:00.410Z,99327.59
2023-02-01T01:50:32.721Z,99326.69
2023-02-01T01:53:03.543Z,99338.84
2023-02-01T01:55:34.867Z,99332.72
2023-02-01T01:58:09.309Z,99322.38
2023-02-01T02:00:36.173Z,99323.22
2023-02-01T02:03:24.557Z,99321.34
2023-02-01T02:05:53.121Z,99311.91
2023-02-01T02:08:21.460Z,99310.06
2023-02-01T02:11:00.944Z,99298.78
2023-02-01T02:13:36.357Z,99296.22
2023-02-01T02:16:27.481Z,99291.81
2023-02-01T02:19:05.906Z,99295.31
2023-02-01T02:22:11.022Z,99291.81
2023-02-01T02:24:40.474Z,99294.31
2023-02-01T02:27:28.499Z,99293.50
2023-02-01T02:30:36.889Z,99281.28
2023-02-01T02:33:31.231Z,99283.97
2023-02-01T02:36:03.921Z,99278.69
2023-02-01T02:39:07.356Z,99266.59
2023-02-01T02:42:16.409Z,99244.09
2023-02-01T02:45:32.599Z,99244.13
2023-02-01T02:48:18.873Z,99251.91
2023-02-01T02:51:13.359Z,99241.44
2023-02-01T02:54:10.987Z,99244.91
2023-02-01T02:56:57.904Z,99243.16
2023-02-01T02:59:45.333Z,99238.91
2023-02-01T03:02:32.608Z,99238.91
2023-02-01T03:04:59.215Z,99232.75
2023-02-01T03:07:54.990Z,99237.09
2023-02-01T03:10:21.869Z,99238.00
2023-02-01T03:12:58.640Z,99225.88
2023-02-01T03:15:33.297Z,99231.16
2023-02-01T03:18:03.553Z,99232.94
2023-02-01T03:20:31.059Z,99231.16
2023-02-01T03:23:00.230Z,99233.75
2023-02-01T03:25:31.953Z,99234.66
2023-02-01T03:28:09.791Z,99240.75
2023-02-01T03:30:41.364Z,99246.75
2023-02-01T03:33:24.673Z,99254.56
2023-02-01T03:36:13.683Z,99259.84
2023-02-01T03:39:17.387Z,99253.75
2023-02-01T03:41:54.269Z,99259.84
2023-02-01T03:44:38.073Z,99249.50
2023-02-01T03:47:15.955Z,99241.72
2023-02-01T03:49:50.539Z,99223.41
2023-02-01T03:52:31.941Z,99228.59
2023-02-01T03:54:59.725Z,99236.44
2023-02-01T03:57:35.869Z,99237.22
2023-02-01T04:00:20.442Z,99239.00
2023-02-01T04:02:47.303Z,99244.13
2023-02-01T04:05:13.911Z,99249.38
2023-02-01T04:07:40.533Z,99254.66
2023-02-01T04:10:07.957Z,99247.66
2023-02-01T04:12:34.535Z,99254.56
2023-02-01T04:15:01.114Z,99251.06
2023-02-01T04:17:27.835Z,99258.88
2023-02-01T04:19:55.588Z,99258.03
2023-02-01T04:22:22.349Z,99254.53
2023-02-01T04:24:48.942Z,99247.56
2023-02-01T04:27:16.135Z,99258.84
2023-02-01T04:29:42.806Z,99253.69
2023-02-01T04:32:09.441Z,99249.41
2023-02-01T04:34:36.075Z,99260.72
2023-02-01T04:37:03.468Z,99266.78
2023-02-01T04:39:30.265Z,99263.34
2023-02-01T04:41:56.806Z,99258.88
2023-02-01T04:44:23.359Z,99258.03
2023-02-01T04:46:49.937Z,99256.25
2023-02-01T04:49:16.522Z,99253.63
2023-02-01T04:51:43.182Z,99246.72
2023-02-01T04:54:12.449Z,99250.16
2023-02-01T04:56:39.144Z,99263.97
2023-02-01T04:59:06.491Z,99256.16
2023-02-01T05:01:33.339Z,99270.91
2023-02-01T05:04:00.280Z,99271.72
2023-02-01T05:06:26.974Z,99263.94
2023-02-01T05:08:53.559Z,99268.25
2023-02-01T05:11:38.726Z,99250.94
2023-02-01T05:14:05.365Z,99243.06
2023-02-01T05:16:32.229Z,99243.88
2023-02-01T05:18:58.944Z,99250.78
2023-02-01T05:21:26.053Z,99249.88
2023-02-01T05:24:10.700Z,99249.06
2023-02-01T05:26:38.772Z,99236.94
2023-02-01T05:29:06.162Z,99249.09
2023-02-01T05:31:32.916Z,99247.31
2023-02-01T05:33:59.762Z,99249.16
2023-02-01T05:36:26.403Z,99250.94
2023-02-01T05:38:53.001Z,99234.50
2023-02-01T05:41:19.683Z,99236.25
2023-02-01T05:43:46.235Z,99250.16
2023-02-01T05:46:14.014Z,99261.47
2023-02-01T05:48:41.693Z,99255.34
2023-02-01T05:51:08.881Z,99254.56
2023-02-01T05:53:35.997Z,99268.47
2023-02-01T05:56:02.928Z,99273.69
2023-02-01T05:58:32.645Z,99270.25
2023-02-01T06:01:04.341Z,99281.56
2023-02-01T06:03:31.232Z,99267.66
2023-02-01T06:05:58.350Z,99265.03
2023-02-01T06:08:26.781Z,99276.28
2023-02-01T06:11:05.338Z,99277.19
2023-02-01T06:13:34.515Z,99286.75
2023-02-01T06:16:03.432Z,99291.00
2023-02-01T06:18:31.573Z,99289.28
2023-02-01T06:21:01.054Z,99300.50
2023-02-01T06:23:28.623Z,99291.91
2023-02-01T06:26:10.944Z,99300.50
2023-02-01T06:28:37.528Z,99297.94
2023-02-01T06:31:07.630Z,99295.31
2023-02-01T06:33:35.103Z,99295.38
2023-02-01T06:36:04.591Z,99291.91
2023-02-01T06:38:31.741Z,99284.97
2023-02-01T06:40:59.115Z,99288.41
2023-02-01T06:43:27.228Z,99286.69
2023-02-01T06:45:54.324Z,99282.38
2023-02-01T06:48:20.989Z,99284.97
2023-02-01T06:50:47.559Z,99295.50
2023-02-01T06:53:14.157Z,99291.16
2023-02-01T06:55:40.755Z,99286.84
2023-02-01T06:58:07.326Z,99285.09
2023-02-01T07:00:33.935Z,99291.19
2023-02-01T07:03:01.134Z,99299.91
2023-02-01T07:05:27.777Z,99306.91
2023-02-01T07:07:54.317Z,99319.88
2023-02-01T07:10:21.398Z,99322.44
2023-02-01T07:12:48.069Z,99311.19
2023-02-01T07:15:14.675Z,99325.09
2023-02-01T07:17:41.275Z,99335.44
2023-02-01T07:20:08.750Z,99333.75
2023-02-01T07:22:35.358Z,99324.19
2023-02-01T07:25:01.983Z,99338.09
2023-02-01T07:27:28.546Z,99334.69
2023-02-01T07:29:56.614Z,99341.59
2023-02-01T07:32:23.379Z,99340.72
2023-02-01T07:34:49.977Z,99331.28
2023-02-01T07:37:16.650Z,99331.28
2023-02-01T07:39:43.298Z,99330.47
2023-02-01T07:42:09.872Z,99334.75
2023-02-01T07:44:36.469Z,99340.84
2023-02-01T07:47:03.049Z,99346.03
2023-02-01T07:49:29.687Z,99334.00
2023-02-01T07:51:56.288Z,99340.91
2023-02-01T07:54:22.977Z,99348.63
2023-02-01T07:56:49.766Z,99342.56
2023-02-01T07:59:17.050Z,99341.72
2023-02-01T08:01:44.274Z,99352.13
2023-02-01T08:04:12.935Z,99359.03
2023-02-01T08:06:40.193Z,99366.84
2023-02-01T08:09:11.900Z,99367.69
2023-02-01T08:11:39.062Z,99362.50
2023-02-01T08:14:06.943Z,99369.47
2023-02-01T08:16:36.129Z,99372.94
2023-02-01T08:19:02.901Z,99371.28
2023-02-01T08:21:37.844Z,99376.41
2023-02-01T08:24:10.234Z,99386.81
2023-02-01T08:26:36.947Z,99385.88
2023-02-01T08:29:05.808Z,99378.94
2023-02-01T08:31:33.183Z,99370.19
2023-02-01T08:34:05.215Z,99367.56
2023-02-01T08:36:32.542Z,99359.75
2023-02-01T08:38:59.183Z,99356.28
2023-02-01T08:41:28.540Z,99372.75
2023-02-01T08:43:55.468Z,99377.94
2023-02-01T08:46:23.444Z,99366.66
2023-02-01T08:48:51.136Z,99375.19
2023-02-01T08:51:20.163Z,99371.69
2023-02-01T08:53:47.505Z,99369.09
2023-02-01T08:56:16.646Z,99369.91
2023-02-01T08:58:43.527Z,99365.69
2023-02-01T09:01:13.562Z,99359.59
2023-02-01T09:03:40.970Z,99350.97
2023-02-01T09:06:10.335Z,99361.34
2023-02-01T09:08:38.137Z,99350.06
2023-02-01T09:11:07.965Z,99349.09
2023-02-01T09:13:36.341Z,99348.22
2023-02-01T09:16:03.737Z,99358.50
2023-02-01T09:18:30.367Z,99368.00
2023-02-01T09:20:57.001Z,99373.19
2023-02-01T09:23:23.679Z,99381.75
2023-02-01T09:25:52.442Z,99378.31
2023-02-01T09:28:19.874Z,99389.56
2023-02-01T09:30:46.851Z,99397.25
2023-02-01T09:33:13.562Z,99403.38
2023-02-01T09:35:40.166Z,99418.13
2023-02-01T09:38:06.782Z,99417.06
2023-02-01T09:40:36.539Z,99411.13
2023-02-01T09:43:06.209Z,99412.84
2023-02-01T09:45:47.565Z,99418.09
2023-02-01T09:48:21.008Z,99410.31
2023-02-01T09:50:56.337Z,99423.25
2023-02-01T09:53:23.074Z,99415.34
2023-02-01T09:55:51.545Z,99411.03
2023-02-01T09:58:28.898Z,99422.25
2023-02-01T10:01:01.027Z,99420.53
2023-02-01T10:03:31.246Z,99426.56
2023-02-01T10:06:19.751Z,99433.47
2023-02-01T10:08:49.350Z,99432.47
2023-02-01T10:11:50.531Z,99434.09
2023-02-01T10:14:23.242Z,99449.66
2023-02-01T10:16:59.118Z,99443.53
2023-02-01T10:19:45.274Z,99442.66
2023-02-01T10:22:58.969Z,99452.22
2023-02-01T10:25:32.948Z,99442.72
2023-02-01T10:28:02.776Z,99449.75
2023-02-01T10:30:38.135Z,99436.72
2023-02-01T10:33:23.034Z,99428.28
2023-02-01T10:35:57.079Z,99441.44
2023-02-01T10:38:29.900Z,99429.44
2023-02-01T10:41:02.798Z,99429.41
2023-02-01T10:43:29.651Z,99426.81
2023-02-01T10:45:56.189Z,99425.91
2023-02-01T10:48:23.592Z,99420.66
2023-02-01T10:51:01.969Z,99408.44
2023-02-01T10:53:47.190Z,99410.13
2023-02-01T10:56:14.525Z,99409.91
2023-02-01T10:58:47.883Z,99400.19
2023-02-01T11:01:22.484Z,99395.66
2023-02-01T11:04:00.979Z,99399.75
2023-02-01T11:06:43.477Z,99395.88
2023-02-01T11:09:21.665Z,99395.41
2023-02-01T11:11:48.151Z,99386.34
2023-02-01T11:14:19.154Z,99393.25
2023-02-01T11:16:51.333Z,99399.25
2023-02-01T11:19:18.890Z,99393.25
2023-02-01T11:21:49.986Z,99392.44
2023-02-01T11:24:23.705Z,99399.72
2023-02-01T11:26:50.964Z,99392.00
2023-02-01T11:29:24.162Z,99387.78
2023-02-01T11:31:51.488Z,99386.94
2023-02-01T11:34:25.858Z,99386.56
2023-02-01T11:36:55.865Z,99379.66
2023-02-01T11:39:27.236Z,99377.84
2023-02-01T11:42:12.758Z,99371.75
2023-02-01T11:44:44.996Z,99378.53
2023-02-01T11:47:26.660Z,99387.19
2023-02-01T11:50:00.206Z,99374.22
2023-02-01T11:52:59.267Z,99372.41
2023-02-01T11:55:55.059Z,99378.09
2023-02-01T11:58:30.681Z,99375.03
2023-02-01T12:01:09.157Z,99375.97
2023-02-01T12:04:10.527Z,99365.72
2023-02-01T12:06:43.082Z,99378.19
2023-02-01T12:09:35.727Z,99374.00
2023-02-01T12:12:32.530Z,99375.78
2023-02-01T12:15:08.190Z,99363.03
2023-02-01T12:17:42.821Z,99370.09
2023-02-01T12:20:29.464Z,99360.28
2023-02-01T12:23:30.157Z,99360.72
2023-02-01T12:26:13.261Z,99366.44
2023-02-01T12:28:42.845Z,99369.50
2023-02-01T12:31:14.152Z,99362.41
2023-02-01T12:33:59.371Z,99363.25
2023-02-01T12:36:28.800Z,99361.69
2023-02-01T12:39:20.225Z,99367.72
2023-02-01T12:42:04.971Z,99354.69
2023-02-01T12:44:55.373Z,99351.59
2023-02-01T12:47:29.918Z,99343.09
2023-02-01T12:50:28.311Z,99333.47
2023-02-01T12:52:59.040Z,99325.47
2023-02-01T12:55:37.707Z,99325.28
2023-02-01T12:58:28.000Z,99313.84
2023-02-01T13:01:02.543Z,99317.19
2023-02-01T13:03:51.144Z,99313.13
2023-02-01T13:06:23.202Z,99313.84
2023-02-01T13:08:59.551Z,99312.09
2023-02-01T13:11:31.468Z,99308.69
2023-02-01T13:14:16.736Z,99293.06
2023-02-01T13:16:49.927Z,99297.81
2023-02-01T13:19:19.515Z,99310.53
2023-02-01T13:22:13.749Z,99294.91
2023-02-01T13:24:52.447Z,99291.91
2023-02-01T13:27:19.547Z,99294.81
2023-02-01T13:29:54.540Z,99300.03
2023-02-01T13:33:18.163Z,99295.78
2023-02-01T13:36:07.362Z,99308.75
2023-02-01T13:38:39.913Z,99296.44
2023-02-01T13:41:18.569Z,99298.78
2023-02-01T13:43:51.394Z,99300.22
2023-02-01T13:46:18.676Z,99305.06
2023-02-01T13:48:58.727Z,99293.50
2023-02-01T13:51:38.817Z,99295.66
2023-02-01T13:54:06.323Z,99292.34
2023-02-01T13:56:41.635Z,99288.06
2023-02-01T13:59:56.071Z,99292.03
2023-02-01T14:02:38.120Z,99304.97
2023-02-01T14:05:25.282Z,99298.94
2023-02-01T14:08:04.254Z,99305.47
2023-02-01T14:10:46.565Z,99299.69
2023-02-01T14:13:30.221Z,99307.69
2023-02-01T14:16:17.794Z,99299.19
2023-02-01T14:18:46.630Z,99294.97
2023-02-01T14:21:22.985Z,99284.66
2023-02-01T14:24:00.461Z,99291.69
2023-02-01T14:26:28.962Z,99289.97
2023-02-01T14:29:01.249Z,99293.38
2023-02-01T14:31:30.992Z,99301.13
2023-02-01T14:34:00.442Z,99305.44
2023-02-01T14:36:39.538Z,99296.78
2023-02-01T14:39:19.328Z,99303.00
2023-02-01T14:41:48.091Z,99299.56
2023-02-01T14:44:24.844Z,99300.53
2023-02-01T14:47:26.998Z,99299.66
2023-02-01T14:49:58.248Z,99298.94
2023-02-01T14:52:33.679Z,99300.66
2023-02-01T14:55:06.498Z,99285.88
2023-02-01T14:57:36.296Z,99294.56
2023-02-01T15:00:26.651Z,99289.34
2023-02-01T15:02:54.946Z,99295.31
2023-02-01T15:05:34.946Z,99292.56
2023-02-01T15:08:08.516Z,99290.81
2023-02-01T15:10:43.337Z,99296.91
2023-02-01T15:13:21.111Z,99303.59
2023-02-01T15:16:21.456Z,99302.72
2023-02-01T15:18:48.097Z,99307.69
2023-02-01T15:21:28.759Z,99311.69
2023-02-01T15:24:15.605Z,99319.53
2023-02-01T15:26:42.196Z,99312.19
2023-02-01T15:29:14.039Z,99314.25
2023-02-01T15:31:47.723Z,99315.47
2023-02-01T15:34:14.481Z,99304.19
2023-02-01T15:36:47.918Z,99298.28
2023-02-01T15:39:30.576Z,99298.50
2023-02-01T15:42:10.270Z,99297.78
2023-02-01T15:44:43.920Z,99296.09
2023-02-01T15:47:25.301Z,99296.09
2023-02-01T15:49:55.473Z,99291.09
2023-02-01T15:52:24.759Z,99294.63
2023-02-01T15:54:56.237Z,99295.66
2023-02-01T15:57:36.432Z,99296.84
2023-02-01T16:00:08.655Z,99301.31
2023-02-01T16:02:39.881Z,99291.13
2023-02-01T16:05:30.019Z,99300.81
2023-02-01T16:08:05.299Z,99307.03
2023-02-01T16:10:33.279Z,99314.13
2023-02-01T16:13:01.317Z,99312.63
2023-02-01T16:15:30.773Z,99310.06
2023-02-01T16:17:57.472Z,99322.34
2023-02-01T16:20:24.001Z,99323.38
2023-02-01T16:22:50.531Z,99323.47
2023-02-01T16:25:17.343Z,99334.00
2023-02-01T16:27:43.867Z,99329.78
2023-02-01T16:30:10.875Z,99339.31
2023-02-01T16:32:41.400Z,99341.94
2023-02-01T16:35:24.905Z,99337.66
2023-02-01T16:37:51.898Z,99333.44
2023-02-01T16:40:19.960Z,99343.03
2023-02-01T16:42:48.880Z,99343.97
2023-02-01T16:45:15.504Z,99345.78
2023-02-01T16:47:55.452Z,99344.03
2023-02-01T16:50:24.554Z,99343.22
2023-02-01T16:52:51.842Z,99342.25
2023-02-01T16:55:20.627Z,99353.38
2023-02-01T16:57:47.470Z,99354.25
2023-02-01T17:00:24.728Z,99357.72
2023-02-01T17:02:52.598Z,99342.03
2023-02-01T17:05:19.251Z,99331.69
2023-02-01T17:07:46.460Z,99332.63
2023-02-01T17:10:32.613Z,99335.25
2023-02-01T17:13:00.760Z,99331.00
2023-02-01T17:15:30.403Z,99338.94
2023-02-01T17:17:58.782Z,99326.84
2023-02-01T17:20:29.833Z,99336.53
2023-02-01T17:22:56.509Z,99346.16
2023-02-01T17:25:23.709Z,99338.41
2023-02-01T17:27:50.458Z,99341.91
2023-02-01T17:30:17.970Z,99344.66
2023-02-01T17:32:44.843Z,99346.44
2023-02-01T17:35:20.297Z,99348.28
2023-02-01T17:37:48.188Z,99345.00
2023-02-01T17:40:15.386Z,99350.25
2023-02-01T17:42:42.419Z,99358.16
2023-02-01T17:45:22.268Z,99352.09
2023-02-01T17:47:49.076Z,99346.06
2023-02-01T17:50:15.936Z,99345.13
2023-02-01T17:52:42.571Z,99341.75
2023-02-01T17:55:17.271Z,99357.50
2023-02-01T17:57:43.813Z,99347.97
2023-02-01T18:00:11.595Z,99362.63
2023-02-01T18:02:38.173Z,99355.81
2023-02-01T18:05:16.634Z,99367.13
2023-02-01T18:07:43.192Z,99373.22
2023-02-01T18:10:11.381Z,99372.41
2023-02-01T18:12:39.145Z,99381.00
2023-02-01T18:15:24.383Z,99374.81
2023-02-01T18:17:51.925Z,99376.44
2023-02-01T18:20:22.988Z,99379.78
2023-02-01T18:22:50.339Z,99379.69
2023-02-01T18:25:24.568Z,99376.91
2023-02-01T18:27:53.169Z,99369.91
2023-02-01T18:30:24.647Z,99380.19
2023-02-01T18:32:51.792Z,99384.53
2023-02-01T18:35:24.582Z,99383.66
2023-02-01T18:37:52.631Z,99380.03
2023-02-01T18:40:29.016Z,99374.81
2023-02-01T18:42:55.785Z,99372.22
2023-02-01T18:45:39.822Z,99374.78
2023-02-01T18:48:08.412Z,99361.59
2023-02-01T18:50:37.998Z,99364.22
2023-02-01T18:53:07.279Z,99360.66
2023-02-01T18:55:34.369Z,99364.09
2023-02-01T18:58:03.197Z,99374.56
2023-02-01T19:00:30.216Z,99367.59
2023-02-01T19:02:56.898Z,99362.31
2023-02-01T19:05:23.791Z,99361.47
2023-02-01T19:07:50.757Z,99365.69
2023-02-01T19:10:22.269Z,99367.41
2023-02-01T19:12:55.392Z,99368.31
2023-02-01T19:15:22.646Z,99368.31
2023-02-01T19:17:51.328Z,99364.78
2023-02-01T19:20:20.677Z,99382.16
2023-02-01T19:22:47.765Z,99364.00
2023-02-01T19:25:20.735Z,99367.38
2023-02-01T19:27:48.305Z,99373.34
2023-02-01T19:30:15.742Z,99369.00
2023-02-01T19:32:42.617Z,99365.59
2023-02-01T19:35:11.959Z,99365.50
2023-02-01T19:37:41.491Z,99372.44
2023-02-01T19:40:10.348Z,99362.84
2023-02-01T19:42:37.304Z,99367.16
2023-02-01T19:45:04.874Z,99363.63
2023-02-01T19:47:31.635Z,99386.19
2023-02-01T19:49:58.276Z,99379.13
2023-02-01T19:52:25.129Z,99379.16
2023-02-01T19:54:51.724Z,99377.38
2023-02-01T19:57:18.243Z,99374.72
2023-02-01T19:59:44.911Z,99372.16
2023-02-01T20:02:14.794Z,99370.38
2023-02-01T20:04:41.468Z,99370.44
2023-02-01T20:07:11.067Z,99380.88
2023-02-01T20:09:41.151Z,99379.13
2023-02-01T20:12:10.738Z,99380.88
2023-02-01T20:14:38.887Z,99371.28
2023-02-01T20:17:06.708Z,99378.25
2023-02-01T20:19:34.459Z,99379.06
2023-02-01T20:22:01.167Z,99378.06
2023-02-01T20:24:27.774Z,99364.31
2023-02-01T20:26:55.278Z,99360.84
2023-02-01T20:29:22.904Z,99361.66
2023-02-01T20:31:49.850Z,99366.09
2023-02-01T20:34:16.481Z,99366.22
2023-02-01T20:36:43.220Z,99366.13
2023-02-01T20:39:13.197Z,99367.09
2023-02-01T20:41:41.115Z,99375.84
2023-02-01T20:44:07.661Z,99374.97
2023-02-01T20:46:34.235Z,99374.00
2023-02-01T20:49:00.811Z,99376.66
2023-02-01T20:51:27.458Z,99375.91
2023-02-01T20:53:55.084Z,99376.72
2023-02-01T20:56:21.974Z,99373.19
2023-02-01T20:58:48.575Z,99364.50
2023-02-01T21:01:16.232Z,99383.66
2023-02-01T21:03:43.151Z,99384.44
2023-02-01T21:06:12.332Z,99383.56
2023-02-01T21:08:41.423Z,99387.94
2023-02-01T21:11:13.455Z,99388.78
2023-02-01T21:13:50.344Z,99380.97
2023-02-01T21:16:19.898Z,99372.31
2023-02-01T21:18:53.723Z,99367.91
2023-02-01T21:21:20.809Z,99376.56
2023-02-01T21:23:49.395Z,99370.50
2023-02-01T21:26:18.822Z,99361.81
2023-02-01T21:28:45.696Z,99364.50
2023-02-01T21:31:14.027Z,99364.59
2023-02-01T21:33:40.755Z,99362.78
2023-02-01T21:36:07.798Z,99358.50
2023-02-01T21:38:34.632Z,99346.34
2023-02-01T21:41:20.740Z,99356.78
2023-02-01T21:43:47.342Z,99362.00
2023-02-01T21:46:13.959Z,99363.69
2023-02-01T21:49:03.673Z,99360.19
2023-02-01T21:51:28.924Z,99370.53
2023-02-01T21:53:56.308Z,99367.13
2023-02-01T21:56:24.332Z,99360.16
2023-02-01T21:58:51.238Z,99368.00
2023-02-01T22:01:18.076Z,99366.31
2023-02-01T22:03:44.728Z,99363.69
2023-02-01T22:06:27.263Z,99367.16
2023-02-01T22:08:53.924Z,99363.72
2023-02-01T22:11:20.630Z,99363.88
2023-02-01T22:13:47.241Z,99362.16
2023-02-01T22:16:15.834Z,99365.63
2023-02-01T22:18:42.382Z,99375.19
2023-02-01T22:21:09.325Z,99370.84
2023-02-01T22:23:35.932Z,99373.59
2023-02-01T22:26:04.561Z,99383.06
2023-02-01T22:28:33.818Z,99381.34
2023-02-01T22:31:02.368Z,99381.41
2023-02-01T22:33:29.656Z,99380.47
2023-02-01T22:35:56.229Z,99385.69
2023-02-01T22:38:22.844Z,99386.50
2023-02-01T22:41:00.624Z,99391.66
2023-02-01T22:43:27.826Z,99394.28
2023-02-01T22:45:54.785Z,99406.38
2023-02-01T22:48:21.911Z,99404.69
2023-02-01T22:50:48.520Z,99395.06
2023-02-01T22:53:15.089Z,99405.50
2023-02-01T22:55:45.454Z,99399.38
2023-02-01T22:58:12.775Z,99408.03
2023-02-01T23:00:39.459Z,99409.75
2023-02-01T23:03:07.190Z,99411.50
2023-02-01T23:05:33.776Z,99407.97
2023-02-01T23:08:00.398Z,99405.31
2023-02-01T23:10:27.020Z,99407.13
2023-02-01T23:12:53.558Z,99410.63
2023-02-01T23:15:20.123Z,99402.72
2023-02-01T23:17:46.969Z,99408.81
2023-02-01T23:20:16.570Z,99409.59
2023-02-01T23:22:44.616Z,99409.59
2023-02-01T23:25:13.144Z,99408.72
2023-02-01T23:27:39.836Z,99404.50
2023-02-01T23:30:08.026Z,99407.97
2023-02-01T23:32:35.887Z,99409.69
2023-02-01T23:35:04.606Z,99411.47
2023-02-01T23:37:31.539Z,99408.78
2023-02-01T23:39:58.120Z,99416.63
2023-02-01T23:42:24.686Z,99404.50
2023-02-01T23:44:51.263Z,99405.38
2023-02-01T23:47:17.922Z,99396.69
2023-02-01T23:49:45.511Z,99403.59
2023-02-01T23:52:12.332Z,99408.81
2023-02-01T23:54:39.107Z,99411.50
2023-02-01T23:57:05.805Z,99414.03
2023-02-01T23:59:32.355Z,99410.59
